createdAt,value
2023-02-23T00:00:47.285Z,30.90
2023-02-23T00:03:49.742Z,31.37
2023-02-23T00:06:52.208Z,31.33
2023-02-23T00:09:53.647Z,31.03
2023-02-23T00:12:55.029Z,32.37
2023-02-23T00:15:56.447Z,33.63
2023-02-23T00:19:00.277Z,35.80
2023-02-23T00:22:01.759Z,31.97
2023-02-23T00:25:08.584Z,35.40
2023-02-23T00:28:10.066Z,32.23
2023-02-23T00:31:11.799Z,29.30
2023-02-23T00:34:15.377Z,36.47
2023-02-23T00:37:18.347Z,34.67
2023-02-23T00:40:23.740Z,28.97
2023-02-23T00:43:25.263Z,31.63
2023-02-23T00:46:29.854Z,36.40
2023-02-23T00:49:32.483Z,32.10
2023-02-23T00:52:33.927Z,31.77
2023-02-23T00:55:41.290Z,34.53
2023-02-23T00:58:42.964Z,33.33
2023-02-23T01:01:44.907Z,30.13
2023-02-23T01:04:46.349Z,28.87
2023-02-23T01:07:49.005Z,29.63
2023-02-23T01:10:53.987Z,33.33
2023-02-23T01:13:57.579Z,31.00
2023-02-23T01:16:59.984Z,30.47
2023-02-23T01:20:01.366Z,30.30
2023-02-23T01:23:04.014Z,31.13
2023-02-23T01:26:05.464Z,31.87
2023-02-23T01:29:13.141Z,30.43
2023-02-23T01:32:14.610Z,34.60
2023-02-23T01:35:16.049Z,30.43
2023-02-23T01:38:18.707Z,31.40
2023-02-23T01:41:26.825Z,31.10
2023-02-23T01:44:31.318Z,29.17
2023-02-23T01:47:32.826Z,34.20
2023-02-23T01:50:52.621Z,32.87
2023-02-23T01:54:01.072Z,32.17
2023-02-23T01:57:04.874Z,31.93
2023-02-23T02:00:13.013Z,32.57
2023-02-23T02:03:24.119Z,27.50
2023-02-23T02:06:29.952Z,32.43
2023-02-23T02:09:37.741Z,32.23
2023-02-23T02:12:40.766Z,37.27
2023-02-23T02:15:57.134Z,34.03
2023-02-23T02:19:10.178Z,31.17
2023-02-23T02:22:48.103Z,33.70
2023-02-23T02:25:58.591Z,34.10
2023-02-23T02:29:21.940Z,31.70
2023-02-23T02:32:55.999Z,31.77
2023-02-23T02:36:27.974Z,34.87
2023-02-23T02:40:17.078Z,34.73
2023-02-23T02:43:40.634Z,29.83
2023-02-23T02:46:51.931Z,32.63
2023-02-23T02:50:14.875Z,33.70
2023-02-23T02:53:34.524Z,36.70
2023-02-23T02:56:40.330Z,33.07
2023-02-23T03:00:06.227Z,31.77
2023-02-23T03:04:05.496Z,33.67
2023-02-23T03:07:49.997Z,33.70
2023-02-23T03:11:30.991Z,30.60
2023-02-23T03:15:29.941Z,36.37
2023-02-23T03:19:00.689Z,33.43
2023-02-23T03:22:28.809Z,34.37
2023-02-23T03:26:24.182Z,33.70
2023-02-23T03:30:07.368Z,31.00
2023-02-23T03:33:36.372Z,32.50
2023-02-23T03:37:02.139Z,35.80
2023-02-23T03:40:40.119Z,32.40
2023-02-23T03:44:15.558Z,36.47
2023-02-23T03:47:39.750Z,36.30
2023-02-23T03:51:05.831Z,31.17
2023-02-23T03:54:35.706Z,37.50
2023-02-23T03:57:58.027Z,36.07
2023-02-23T04:01:21.868Z,36.17
2023-02-23T04:04:44.167Z,34.10
2023-02-23T04:08:06.081Z,37.40
2023-02-23T04:11:34.961Z,37.23
2023-02-23T04:14:59.281Z,36.80
2023-02-23T04:18:00.830Z,36.47
2023-02-23T04:21:03.365Z,37.53
2023-02-23T04:24:04.924Z,40.87
2023-02-23T04:27:06.336Z,35.60
2023-02-23T04:30:11.368Z,40.93
2023-02-23T04:33:12.922Z,39.90
2023-02-23T04:36:14.325Z,37.63
2023-02-23T04:39:15.702Z,38.30
2023-02-23T04:42:18.082Z,36.17
2023-02-23T04:45:20.008Z,34.87
2023-02-23T04:48:21.406Z,37.97
2023-02-23T04:51:22.806Z,37.07
2023-02-23T04:54:24.201Z,34.83
2023-02-23T04:57:25.609Z,33.77
2023-02-23T05:00:29.260Z,36.10
2023-02-23T05:03:30.652Z,34.40
2023-02-23T05:06:32.625Z,37.03
2023-02-23T05:09:34.905Z,39.03
2023-02-23T05:12:36.322Z,37.43
2023-02-23T05:15:38.629Z,33.53
2023-02-23T05:18:40.146Z,33.83
2023-02-23T05:21:41.801Z,38.90
2023-02-23T05:24:43.171Z,35.10
2023-02-23T05:27:44.581Z,32.80
2023-02-23T05:30:46.017Z,29.50
2023-02-23T05:33:47.458Z,32.53
2023-02-23T05:36:48.853Z,34.20
2023-02-23T05:39:50.373Z,35.87
2023-02-23T05:42:51.789Z,33.27
2023-02-23T05:45:53.238Z,34.93
2023-02-23T05:49:00.051Z,34.23
2023-02-23T05:52:01.460Z,30.07
2023-02-23T05:55:02.837Z,33.60
2023-02-23T05:58:04.328Z,30.90
2023-02-23T06:01:05.711Z,32.87
2023-02-23T06:04:07.258Z,31.57
2023-02-23T06:07:08.703Z,35.50
2023-02-23T06:10:10.725Z,31.50
2023-02-23T06:13:12.615Z,30.00
2023-02-23T06:16:14.174Z,31.93
2023-02-23T06:19:15.823Z,32.30
2023-02-23T06:22:17.696Z,35.03
2023-02-23T06:25:19.094Z,28.37
2023-02-23T06:28:20.616Z,32.63
2023-02-23T06:31:22.232Z,31.70
2023-02-23T06:34:23.739Z,30.83
2023-02-23T06:37:25.245Z,30.43
2023-02-23T06:40:26.994Z,29.20
2023-02-23T06:43:29.531Z,27.83
2023-02-23T06:46:33.047Z,30.37
2023-02-23T06:49:34.527Z,29.80
2023-02-23T06:52:36.089Z,28.87
2023-02-23T06:55:37.541Z,29.43
2023-02-23T06:58:38.929Z,30.67
2023-02-23T07:01:40.391Z,28.80
2023-02-23T07:04:41.855Z,29.43
2023-02-23T07:07:43.486Z,30.00
2023-02-23T07:10:45.824Z,29.20
2023-02-23T07:13:47.308Z,28.57
2023-02-23T07:16:48.772Z,26.17
2023-02-23T07:19:50.170Z,29.80
2023-02-23T07:22:52.019Z,27.37
2023-02-23T07:25:56.505Z,26.80
2023-02-23T07:28:57.936Z,29.33
2023-02-23T07:31:59.872Z,28.37
2023-02-23T07:35:01.485Z,27.17
2023-02-23T07:38:04.302Z,30.10
2023-02-23T07:41:05.864Z,26.87
2023-02-23T07:44:07.676Z,28.93
2023-02-23T07:47:09.062Z,27.53
2023-02-23T07:50:12.585Z,25.37
2023-02-23T07:53:14.518Z,26.33
2023-02-23T07:56:16.010Z,26.10
2023-02-23T07:59:17.550Z,27.70
2023-02-23T08:02:18.969Z,28.50
2023-02-23T08:05:20.488Z,27.03
2023-02-23T08:08:22.245Z,28.60
2023-02-23T08:11:23.657Z,24.83
2023-02-23T08:14:25.266Z,28.97
2023-02-23T08:17:27.395Z,26.57
2023-02-23T08:20:28.792Z,28.40
2023-02-23T08:23:32.126Z,25.10
2023-02-23T08:26:35.835Z,26.23
2023-02-23T08:29:37.353Z,26.73
2023-02-23T08:32:38.814Z,25.23
2023-02-23T08:35:40.306Z,25.70
2023-02-23T08:38:41.690Z,25.37
2023-02-23T08:41:43.086Z,28.70
2023-02-23T08:44:44.755Z,25.03
2023-02-23T08:47:46.203Z,23.43
2023-02-23T08:50:49.787Z,24.53
2023-02-23T08:53:51.324Z,21.87
2023-02-23T08:56:56.084Z,22.10
2023-02-23T08:59:57.538Z,22.47
2023-02-23T09:02:58.925Z,23.47
2023-02-23T09:06:08.999Z,18.93
2023-02-23T09:09:10.566Z,18.80
2023-02-23T09:12:11.954Z,18.73
2023-02-23T09:15:13.485Z,19.90
2023-02-23T09:18:14.948Z,16.40
2023-02-23T09:21:20.935Z,14.53
2023-02-23T09:24:23.456Z,16.37
2023-02-23T09:27:24.853Z,14.87
2023-02-23T09:30:27.151Z,13.97
2023-02-23T09:33:28.619Z,16.47
2023-02-23T09:36:31.555Z,16.57
2023-02-23T09:39:38.683Z,14.17
2023-02-23T09:42:45.573Z,15.43
2023-02-23T09:45:58.373Z,16.87
2023-02-23T09:49:03.707Z,15.30
2023-02-23T09:52:10.711Z,13.53
2023-02-23T09:55:14.234Z,13.77
2023-02-23T09:58:23.614Z,13.53
2023-02-23T10:01:44.990Z,14.17
2023-02-23T10:04:50.279Z,11.50
2023-02-23T10:07:56.586Z,14.20
2023-02-23T10:11:14.581Z,12.73
2023-02-23T10:14:35.012Z,12.43
2023-02-23T10:17:52.466Z,11.23
2023-02-23T10:21:02.856Z,10.60
2023-02-23T10:24:16.196Z,12.97
2023-02-23T10:27:20.842Z,15.60
2023-02-23T10:30:27.241Z,13.33
2023-02-23T10:33:41.390Z,12.60
2023-02-23T10:36:59.011Z,9.80
2023-02-23T10:40:00.426Z,10.30
2023-02-23T10:43:02.518Z,11.83
2023-02-23T10:46:05.783Z,10.47
2023-02-23T10:49:16.214Z,11.20
2023-02-23T10:52:34.743Z,9.87
2023-02-23T10:55:36.249Z,10.30
2023-02-23T10:58:47.583Z,11.23
2023-02-23T11:02:01.495Z,8.90
2023-02-23T11:05:05.135Z,11.57
2023-02-23T11:08:29.118Z,10.60
2023-02-23T11:11:30.623Z,9.13
2023-02-23T11:14:32.100Z,10.20
2023-02-23T11:17:36.787Z,10.27
2023-02-23T11:20:41.635Z,11.47
2023-02-23T11:23:43.468Z,10.23
2023-02-23T11:26:47.597Z,11.77
2023-02-23T11:29:52.395Z,12.00
2023-02-23T11:32:57.516Z,9.43
2023-02-23T11:36:01.139Z,10.90
2023-02-23T11:39:23.498Z,9.93
2023-02-23T11:42:33.433Z,7.10
2023-02-23T11:45:51.136Z,11.07
2023-02-23T11:48:59.636Z,20.27
2023-02-23T11:52:02.034Z,9.87
2023-02-23T11:55:07.826Z,8.27
2023-02-23T11:58:47.343Z,10.77
2023-02-23T12:01:54.185Z,9.50
2023-02-23T12:05:07.286Z,12.03
2023-02-23T12:08:19.525Z,14.03
2023-02-23T12:11:28.109Z,9.90
2023-02-23T12:14:37.894Z,8.03
2023-02-23T12:17:46.915Z,11.50
2023-02-23T12:20:54.121Z,11.10
2023-02-23T12:24:06.028Z,12.70
2023-02-23T12:27:42.980Z,10.83
2023-02-23T12:30:59.479Z,12.37
2023-02-23T12:34:22.786Z,10.30
2023-02-23T12:37:30.151Z,12.67
2023-02-23T12:40:35.285Z,8.87
2023-02-23T12:43:49.220Z,11.33
2023-02-23T12:46:54.784Z,10.53
2023-02-23T12:50:13.256Z,10.03
2023-02-23T12:53:43.767Z,10.83
2023-02-23T12:56:57.959Z,11.13
2023-02-23T13:00:41.321Z,9.30
2023-02-23T13:04:19.983Z,11.10
2023-02-23T13:07:34.352Z,9.87
2023-02-23T13:10:44.955Z,10.03
2023-02-23T13:14:30.256Z,9.20
2023-02-23T13:17:40.347Z,11.07
2023-02-23T13:20:54.767Z,13.03
2023-02-23T13:23:59.118Z,13.63
2023-02-23T13:27:16.132Z,11.70
2023-02-23T13:30:20.556Z,11.07
2023-02-23T13:33:41.967Z,12.03
2023-02-23T13:36:45.866Z,13.47
2023-02-23T13:40:15.594Z,16.50
2023-02-23T13:43:32.439Z,12.90
2023-02-23T13:47:00.212Z,11.20
2023-02-23T13:50:54.188Z,10.27
2023-02-23T13:53:58.856Z,13.27
2023-02-23T13:57:05.496Z,12.60
2023-02-23T14:00:18.943Z,10.90
2023-02-23T14:03:24.405Z,11.70
2023-02-23T14:06:29.453Z,10.67
2023-02-23T14:09:35.693Z,11.77
2023-02-23T14:12:42.563Z,10.30
2023-02-23T14:15:53.547Z,14.33
2023-02-23T14:19:03.893Z,12.20
2023-02-23T14:22:10.417Z,15.60
2023-02-23T14:25:33.647Z,12.23
2023-02-23T14:28:38.996Z,12.37
2023-02-23T14:31:57.576Z,11.53
2023-02-23T14:35:01.753Z,16.53
2023-02-23T14:38:46.936Z,15.07
2023-02-23T14:41:53.912Z,13.97
2023-02-23T14:44:57.870Z,12.57
2023-02-23T14:48:05.181Z,10.77
2023-02-23T14:51:20.310Z,15.57
2023-02-23T14:54:30.920Z,12.93
2023-02-23T14:57:36.268Z,13.17
2023-02-23T15:00:42.683Z,17.73
2023-02-23T15:04:14.026Z,14.03
2023-02-23T15:07:25.168Z,20.50
2023-02-23T15:10:29.704Z,16.87
2023-02-23T15:13:39.804Z,17.93
2023-02-23T15:16:44.776Z,17.93
2023-02-23T15:19:48.436Z,12.63
2023-02-23T15:22:54.966Z,13.73
2023-02-23T15:25:56.857Z,14.80
2023-02-23T15:29:10.428Z,18.63
2023-02-23T15:32:18.631Z,13.37
2023-02-23T15:35:20.316Z,13.17
2023-02-23T15:38:42.935Z,13.13
2023-02-23T15:41:49.225Z,14.20
2023-02-23T15:44:57.160Z,16.70
2023-02-23T15:48:03.627Z,14.47
2023-02-23T15:51:06.922Z,14.10
2023-02-23T15:54:23.723Z,19.40
2023-02-23T15:57:34.696Z,12.80
2023-02-23T16:00:41.440Z,16.20
2023-02-23T16:03:54.547Z,13.80
2023-02-23T16:07:07.298Z,13.93
2023-02-23T16:10:20.819Z,17.40
2023-02-23T16:13:22.533Z,12.13
2023-02-23T16:16:25.466Z,13.77
2023-02-23T16:19:29.510Z,14.80
2023-02-23T16:22:32.067Z,12.80
2023-02-23T16:25:34.800Z,13.03
2023-02-23T16:28:42.000Z,14.70
2023-02-23T16:31:49.392Z,15.80
2023-02-23T16:34:57.851Z,14.27
2023-02-23T16:38:02.737Z,16.93
2023-02-23T16:41:05.192Z,13.77
2023-02-23T16:44:13.348Z,14.03
2023-02-23T16:47:23.982Z,13.27
2023-02-23T16:50:25.536Z,17.53
2023-02-23T16:53:27.025Z,15.10
2023-02-23T16:56:30.562Z,13.70
2023-02-23T16:59:32.476Z,16.90
2023-02-23T17:02:35.004Z,14.60
2023-02-23T17:05:36.408Z,14.27
2023-02-23T17:08:41.256Z,16.77
2023-02-23T17:11:47.001Z,17.93
2023-02-23T17:14:49.193Z,13.03
2023-02-23T17:17:53.195Z,16.03
2023-02-23T17:20:56.414Z,15.13
2023-02-23T17:24:02.655Z,11.70
2023-02-23T17:27:04.189Z,15.13
2023-02-23T17:30:06.910Z,11.83
2023-02-23T17:33:09.652Z,14.63
2023-02-23T17:36:14.640Z,13.40
2023-02-23T17:39:16.741Z,13.33
2023-02-23T17:42:18.723Z,13.60
2023-02-23T17:45:20.240Z,15.53
2023-02-23T17:48:22.806Z,14.80
2023-02-23T17:51:24.267Z,13.00
2023-02-23T17:54:27.585Z,11.67
2023-02-23T17:57:30.620Z,12.53
2023-02-23T18:00:37.686Z,12.93
2023-02-23T18:03:39.768Z,14.23
2023-02-23T18:06:45.335Z,12.20
2023-02-23T18:09:49.963Z,12.57
2023-02-23T18:12:53.558Z,13.60
2023-02-23T18:16:02.575Z,9.57
2023-02-23T18:19:04.030Z,14.93
2023-02-23T18:22:07.640Z,15.10
2023-02-23T18:25:19.286Z,8.23
2023-02-23T18:28:23.567Z,9.57
2023-02-23T18:31:30.387Z,12.10
2023-02-23T18:34:31.927Z,10.67
2023-02-23T18:37:33.397Z,9.40
2023-02-23T18:40:35.814Z,11.97
2023-02-23T18:43:38.993Z,8.70
2023-02-23T18:46:42.104Z,8.30
2023-02-23T18:49:43.814Z,7.73
2023-02-23T18:52:50.866Z,13.77
2023-02-23T18:55:52.380Z,9.43
2023-02-23T18:58:59.405Z,11.60
2023-02-23T19:02:00.977Z,8.73
2023-02-23T19:05:03.069Z,7.67
2023-02-23T19:08:08.960Z,6.50
2023-02-23T19:11:11.330Z,7.90
2023-02-23T19:14:18.084Z,8.13
2023-02-23T19:17:19.679Z,14.70
2023-02-23T19:20:23.035Z,12.40
2023-02-23T19:23:24.481Z,9.60
2023-02-23T19:26:27.048Z,10.90
2023-02-23T19:29:28.461Z,8.80
2023-02-23T19:32:30.068Z,11.10
2023-02-23T19:35:31.647Z,9.03
2023-02-23T19:38:34.085Z,9.37
2023-02-23T19:41:37.689Z,9.87
2023-02-23T19:44:39.197Z,9.10
2023-02-23T19:47:40.879Z,10.30
2023-02-23T19:50:47.964Z,10.30
2023-02-23T19:53:49.495Z,10.23
2023-02-23T19:56:51.372Z,8.20
2023-02-23T19:59:52.935Z,11.83
2023-02-23T20:02:56.910Z,8.47
2023-02-23T20:05:58.435Z,14.33
2023-02-23T20:09:01.657Z,9.43
2023-02-23T20:12:03.167Z,13.93
2023-02-23T20:15:05.458Z,11.57
2023-02-23T20:18:07.760Z,9.80
2023-02-23T20:21:13.390Z,12.70
2023-02-23T20:24:15.454Z,13.40
2023-02-23T20:27:17.020Z,9.87
2023-02-23T20:30:19.424Z,10.97
2023-02-23T20:33:20.866Z,12.10
2023-02-23T20:36:23.614Z,11.93
2023-02-23T20:39:26.736Z,11.60
2023-02-23T20:42:28.509Z,15.33
2023-02-23T20:45:29.895Z,10.50
2023-02-23T20:48:33.189Z,10.13
2023-02-23T20:51:34.593Z,11.83
2023-02-23T20:54:36.572Z,13.53
2023-02-23T20:57:38.083Z,20.07
2023-02-23T21:00:39.899Z,14.50
2023-02-23T21:03:41.529Z,12.23
2023-02-23T21:06:43.041Z,13.73
2023-02-23T21:09:45.208Z,13.53
2023-02-23T21:12:46.661Z,12.13
2023-02-23T21:15:58.445Z,19.07
2023-02-23T21:19:05.863Z,12.33
2023-02-23T21:22:07.542Z,14.80
2023-02-23T21:25:11.011Z,16.00
2023-02-23T21:28:12.440Z,18.47
2023-02-23T21:31:14.979Z,18.60
2023-02-23T21:34:19.365Z,17.70
2023-02-23T21:37:20.731Z,15.73
2023-02-23T21:40:23.536Z,16.97
2023-02-23T21:43:27.838Z,19.17
2023-02-23T21:46:29.366Z,19.00
2023-02-23T21:49:30.895Z,17.03
2023-02-23T21:52:32.981Z,19.90
2023-02-23T21:55:38.434Z,19.30
2023-02-23T21:58:47.349Z,17.37
2023-02-23T22:01:48.922Z,18.63
2023-02-23T22:04:50.619Z,22.90
2023-02-23T22:07:54.083Z,21.70
2023-02-23T22:10:55.501Z,19.80
2023-02-23T22:13:59.020Z,19.17
2023-02-23T22:17:00.647Z,21.47
2023-02-23T22:20:05.214Z,24.37
2023-02-23T22:23:06.598Z,22.63
2023-02-23T22:26:09.006Z,23.77
2023-02-23T22:29:10.638Z,23.93
2023-02-23T22:32:12.505Z,24.07
2023-02-23T22:35:14.023Z,25.67
2023-02-23T22:38:18.967Z,25.00
2023-02-23T22:41:20.747Z,26.87
2023-02-23T22:44:22.526Z,28.03
2023-02-23T22:47:24.250Z,30.07
2023-02-23T22:50:25.716Z,25.57
2023-02-23T22:53:28.061Z,26.67
2023-02-23T22:56:29.445Z,25.23
2023-02-23T22:59:30.878Z,25.20
2023-02-23T23:02:32.457Z,27.80
2023-02-23T23:05:33.926Z,26.93
2023-02-23T23:08:40.713Z,27.13
2023-02-23T23:11:42.606Z,27.23
2023-02-23T23:14:45.488Z,23.50
2023-02-23T23:17:49.476Z,25.83
2023-02-23T23:20:50.913Z,26.83
2023-02-23T23:23:55.773Z,26.93
2023-02-23T23:27:01.214Z,24.67
2023-02-23T23:30:05.669Z,24.90
2023-02-23T23:33:08.037Z,24.83
2023-02-23T23:36:10.056Z,26.03
2023-02-23T23:39:12.708Z,23.00
2023-02-23T23:42:14.139Z,23.40
2023-02-23T23:45:18.217Z,22.73
2023-02-23T23:48:21.630Z,22.63
2023-02-23T23:51:27.344Z,24.50
2023-02-23T23:54:30.887Z,23.00
2023-02-23T23:57:33.826Z,25.17
